sensor_id;sensor_type;location;lat;lon;timestamp;P1;durP1;ratioP1;P2;durP2;ratioP2
59338;SDS011;45117;50.960;5.500;2023-05-14T00:01:54;11.60;;;7.53;;
59338;SDS011;45117;50.960;5.500;2023-05-14T00:04:21;11.57;;;7.38;;
59338;SDS011;45117;50.960;5.500;2023-05-14T00:06:48;12.05;;;8.20;;
59338;SDS011;45117;50.960;5.500;2023-05-14T00:09:16;10.88;;;8.00;;
59338;SDS011;45117;50.960;5.500;2023-05-14T00:11:42;12.52;;;7.75;;
59338;SDS011;45117;50.960;5.500;2023-05-14T00:14:09;12.82;;;8.23;;
59338;SDS011;45117;50.960;5.500;2023-05-14T00:16:35;10.23;;;7.35;;
59338;SDS011;45117;50.960;5.500;2023-05-14T00:19:02;13.73;;;7.63;;
59338;SDS011;45117;50.960;5.500;2023-05-14T00:21:28;9.60;;;7.60;;
59338;SDS011;45117;50.960;5.500;2023-05-14T00:23:55;10.50;;;8.02;;
59338;SDS011;45117;50.960;5.500;2023-05-14T00:26:23;12.82;;;8.55;;
59338;SDS011;45117;50.960;5.500;2023-05-14T00:28:50;12.65;;;8.73;;
59338;SDS011;45117;50.960;5.500;2023-05-14T00:31:16;11.88;;;8.90;;
59338;SDS011;45117;50.960;5.500;2023-05-14T00:33:43;10.43;;;7.85;;
59338;SDS011;45117;50.960;5.500;2023-05-14T00:36:09;14.57;;;8.73;;
59338;SDS011;45117;50.960;5.500;2023-05-14T00:38:36;13.45;;;8.98;;
59338;SDS011;45117;50.960;5.500;2023-05-14T00:41:02;11.50;;;8.65;;
59338;SDS011;45117;50.960;5.500;2023-05-14T00:43:30;10.57;;;8.35;;
59338;SDS011;45117;50.960;5.500;2023-05-14T00:45:57;12.60;;;9.25;;
59338;SDS011;45117;50.960;5.500;2023-05-14T00:48:24;13.75;;;9.65;;
59338;SDS011;45117;50.960;5.500;2023-05-14T00:50:51;12.48;;;8.63;;
59338;SDS011;45117;50.960;5.500;2023-05-14T00:53:18;13.52;;;9.35;;
59338;SDS011;45117;50.960;5.500;2023-05-14T00:55:45;14.15;;;10.50;;
59338;SDS011;45117;50.960;5.500;2023-05-14T00:58:13;17.50;;;10.27;;
59338;SDS011;45117;50.960;5.500;2023-05-14T01:00:42;13.02;;;9.48;;
59338;SDS011;45117;50.960;5.500;2023-05-14T01:03:08;13.88;;;9.48;;
59338;SDS011;45117;50.960;5.500;2023-05-14T01:05:36;12.60;;;9.15;;
59338;SDS011;45117;50.960;5.500;2023-05-14T01:08:08;14.98;;;10.30;;
59338;SDS011;45117;50.960;5.500;2023-05-14T01:10:42;13.18;;;9.57;;
59338;SDS011;45117;50.960;5.500;2023-05-14T01:13:16;12.52;;;9.65;;
59338;SDS011;45117;50.960;5.500;2023-05-14T01:15:50;14.90;;;10.50;;
59338;SDS011;45117;50.960;5.500;2023-05-14T01:18:19;13.95;;;10.20;;
59338;SDS011;45117;50.960;5.500;2023-05-14T01:20:48;14.93;;;10.35;;
59338;SDS011;45117;50.960;5.500;2023-05-14T01:23:17;14.75;;;10.00;;
59338;SDS011;45117;50.960;5.500;2023-05-14T01:25:44;16.42;;;11.18;;
59338;SDS011;45117;50.960;5.500;2023-05-14T01:28:11;12.10;;;9.40;;
59338;SDS011;45117;50.960;5.500;2023-05-14T01:30:44;16.70;;;10.85;;
59338;SDS011;45117;50.960;5.500;2023-05-14T01:33:15;15.88;;;10.18;;
59338;SDS011;45117;50.960;5.500;2023-05-14T01:35:43;16.88;;;11.35;;
59338;SDS011;45117;50.960;5.500;2023-05-14T01:38:10;14.93;;;10.68;;
59338;SDS011;45117;50.960;5.500;2023-05-14T01:40:40;17.17;;;12.05;;
59338;SDS011;45117;50.960;5.500;2023-05-14T01:43:07;18.73;;;11.85;;
59338;SDS011;45117;50.960;5.500;2023-05-14T01:45:34;18.05;;;12.48;;
59338;SDS011;45117;50.960;5.500;2023-05-14T01:48:01;21.55;;;12.75;;
59338;SDS011;45117;50.960;5.500;2023-05-14T01:50:28;16.48;;;11.30;;
59338;SDS011;45117;50.960;5.500;2023-05-14T01:52:54;17.98;;;11.57;;
59338;SDS011;45117;50.960;5.500;2023-05-14T01:55:21;14.05;;;10.88;;
59338;SDS011;45117;50.960;5.500;2023-05-14T01:57:49;13.30;;;11.20;;
59338;SDS011;45117;50.960;5.500;2023-05-14T02:00:16;15.23;;;11.23;;
59338;SDS011;45117;50.960;5.500;2023-05-14T02:02:43;15.20;;;10.88;;
59338;SDS011;45117;50.960;5.500;2023-05-14T02:05:09;17.15;;;11.98;;
59338;SDS011;45117;50.960;5.500;2023-05-14T02:07:37;17.05;;;11.68;;
59338;SDS011;45117;50.960;5.500;2023-05-14T02:10:04;17.60;;;11.98;;
59338;SDS011;45117;50.960;5.500;2023-05-14T02:12:31;17.85;;;12.35;;
59338;SDS011;45117;50.960;5.500;2023-05-14T02:14:59;17.48;;;13.05;;
59338;SDS011;45117;50.960;5.500;2023-05-14T02:17:25;18.38;;;13.70;;
59338;SDS011;45117;50.960;5.500;2023-05-14T02:19:52;17.60;;;13.82;;
59338;SDS011;45117;50.960;5.500;2023-05-14T02:22:18;20.52;;;14.52;;
59338;SDS011;45117;50.960;5.500;2023-05-14T02:24:45;18.50;;;14.05;;
59338;SDS011;45117;50.960;5.500;2023-05-14T02:27:13;20.90;;;15.20;;
59338;SDS011;45117;50.960;5.500;2023-05-14T02:29:40;23.08;;;15.70;;
59338;SDS011;45117;50.960;5.500;2023-05-14T02:32:08;22.80;;;13.52;;
59338;SDS011;45117;50.960;5.500;2023-05-14T02:34:34;22.38;;;14.02;;
59338;SDS011;45117;50.960;5.500;2023-05-14T02:37:01;18.63;;;12.70;;
59338;SDS011;45117;50.960;5.500;2023-05-14T02:39:27;21.08;;;13.57;;
59338;SDS011;45117;50.960;5.500;2023-05-14T02:41:54;19.77;;;14.82;;
59338;SDS011;45117;50.960;5.500;2023-05-14T02:44:21;21.27;;;14.70;;
59338;SDS011;45117;50.960;5.500;2023-05-14T02:46:47;19.13;;;13.50;;
59338;SDS011;45117;50.960;5.500;2023-05-14T02:49:15;20.42;;;13.80;;
59338;SDS011;45117;50.960;5.500;2023-05-14T02:51:42;19.88;;;14.90;;
59338;SDS011;45117;50.960;5.500;2023-05-14T02:54:08;18.63;;;14.45;;
59338;SDS011;45117;50.960;5.500;2023-05-14T02:56:35;24.05;;;15.38;;
59338;SDS011;45117;50.960;5.500;2023-05-14T02:59:01;20.55;;;14.98;;
59338;SDS011;45117;50.960;5.500;2023-05-14T03:01:28;21.55;;;14.45;;
59338;SDS011;45117;50.960;5.500;2023-05-14T03:03:54;22.08;;;14.95;;
59338;SDS011;45117;50.960;5.500;2023-05-14T03:06:22;21.10;;;13.48;;
59338;SDS011;45117;50.960;5.500;2023-05-14T03:08:49;19.60;;;13.57;;
59338;SDS011;45117;50.960;5.500;2023-05-14T03:11:15;17.73;;;13.68;;
59338;SDS011;45117;50.960;5.500;2023-05-14T03:13:42;19.85;;;13.52;;
59338;SDS011;45117;50.960;5.500;2023-05-14T03:16:08;19.80;;;13.35;;
59338;SDS011;45117;50.960;5.500;2023-05-14T03:18:35;19.10;;;14.18;;
59338;SDS011;45117;50.960;5.500;2023-05-14T03:21:02;21.10;;;15.30;;
59338;SDS011;45117;50.960;5.500;2023-05-14T03:23:30;20.40;;;14.13;;
59338;SDS011;45117;50.960;5.500;2023-05-14T03:25:59;25.13;;;15.82;;
59338;SDS011;45117;50.960;5.500;2023-05-14T03:28:26;22.60;;;14.90;;
59338;SDS011;45117;50.960;5.500;2023-05-14T03:30:52;25.20;;;16.23;;
59338;SDS011;45117;50.960;5.500;2023-05-14T03:33:19;26.17;;;16.42;;
59338;SDS011;45117;50.960;5.500;2023-05-14T03:35:45;22.30;;;15.93;;
59338;SDS011;45117;50.960;5.500;2023-05-14T03:38:12;21.98;;;15.73;;
59338;SDS011;45117;50.960;5.500;2023-05-14T03:40:40;25.00;;;16.55;;
59338;SDS011;45117;50.960;5.500;2023-05-14T03:43:06;25.35;;;16.88;;
59338;SDS011;45117;50.960;5.500;2023-05-14T03:45:33;20.40;;;15.13;;
59338;SDS011;45117;50.960;5.500;2023-05-14T03:48:00;19.52;;;13.88;;
59338;SDS011;45117;50.960;5.500;2023-05-14T03:50:26;24.55;;;16.35;;
59338;SDS011;45117;50.960;5.500;2023-05-14T03:52:53;24.88;;;16.38;;
59338;SDS011;45117;50.960;5.500;2023-05-14T03:55:20;26.65;;;17.27;;
59338;SDS011;45117;50.960;5.500;2023-05-14T03:57:48;31.65;;;19.63;;
59338;SDS011;45117;50.960;5.500;2023-05-14T04:00:14;28.52;;;18.60;;
59338;SDS011;45117;50.960;5.500;2023-05-14T04:02:41;26.23;;;17.90;;
59338;SDS011;45117;50.960;5.500;2023-05-14T04:05:08;26.80;;;17.38;;
59338;SDS011;45117;50.960;5.500;2023-05-14T04:07:34;22.20;;;16.45;;
59338;SDS011;45117;50.960;5.500;2023-05-14T04:10:01;22.58;;;15.68;;
59338;SDS011;45117;50.960;5.500;2023-05-14T04:12:28;29.42;;;18.58;;
59338;SDS011;45117;50.960;5.500;2023-05-14T04:14:57;25.65;;;16.75;;
59338;SDS011;45117;50.960;5.500;2023-05-14T04:17:23;26.48;;;17.63;;
59338;SDS011;45117;50.960;5.500;2023-05-14T04:19:50;24.45;;;17.50;;
59338;SDS011;45117;50.960;5.500;2023-05-14T04:22:17;27.55;;;18.08;;
59338;SDS011;45117;50.960;5.500;2023-05-14T04:24:43;28.33;;;18.65;;
59338;SDS011;45117;50.960;5.500;2023-05-14T04:27:10;31.17;;;21.05;;
59338;SDS011;45117;50.960;5.500;2023-05-14T04:29:36;33.67;;;21.90;;
59338;SDS011;45117;50.960;5.500;2023-05-14T04:32:04;29.45;;;20.13;;
59338;SDS011;45117;50.960;5.500;2023-05-14T04:34:31;33.08;;;21.02;;
59338;SDS011;45117;50.960;5.500;2023-05-14T04:36:58;29.05;;;20.38;;
59338;SDS011;45117;50.960;5.500;2023-05-14T04:39:24;29.90;;;19.60;;
59338;SDS011;45117;50.960;5.500;2023-05-14T04:41:51;29.85;;;20.75;;
59338;SDS011;45117;50.960;5.500;2023-05-14T04:44:17;29.88;;;19.58;;
59338;SDS011;45117;50.960;5.500;2023-05-14T04:46:44;31.98;;;19.98;;
59338;SDS011;45117;50.960;5.500;2023-05-14T04:49:11;29.52;;;20.30;;
59338;SDS011;45117;50.960;5.500;2023-05-14T04:51:38;30.15;;;20.30;;
59338;SDS011;45117;50.960;5.500;2023-05-14T04:54:05;29.02;;;20.27;;
59338;SDS011;45117;50.960;5.500;2023-05-14T04:56:31;32.28;;;20.30;;
59338;SDS011;45117;50.960;5.500;2023-05-14T04:58:58;28.63;;;20.35;;
59338;SDS011;45117;50.960;5.500;2023-05-14T05:01:24;24.48;;;18.55;;
59338;SDS011;45117;50.960;5.500;2023-05-14T05:03:51;25.98;;;17.80;;
59338;SDS011;45117;50.960;5.500;2023-05-14T05:06:19;22.52;;;16.98;;
59338;SDS011;45117;50.960;5.500;2023-05-14T05:08:45;19.90;;;14.15;;
59338;SDS011;45117;50.960;5.500;2023-05-14T05:11:12;20.98;;;15.57;;
59338;SDS011;45117;50.960;5.500;2023-05-14T05:13:38;19.92;;;14.82;;
59338;SDS011;45117;50.960;5.500;2023-05-14T05:16:05;19.20;;;14.85;;
59338;SDS011;45117;50.960;5.500;2023-05-14T05:18:32;18.10;;;14.48;;
59338;SDS011;45117;50.960;5.500;2023-05-14T05:20:58;18.60;;;15.15;;
59338;SDS011;45117;50.960;5.500;2023-05-14T05:23:26;16.20;;;12.70;;
59338;SDS011;45117;50.960;5.500;2023-05-14T05:25:52;20.23;;;13.65;;
59338;SDS011;45117;50.960;5.500;2023-05-14T05:28:19;18.20;;;14.02;;
59338;SDS011;45117;50.960;5.500;2023-05-14T05:30:45;19.40;;;13.52;;
59338;SDS011;45117;50.960;5.500;2023-05-14T05:33:12;18.45;;;13.50;;
59338;SDS011;45117;50.960;5.500;2023-05-14T05:35:38;16.35;;;13.30;;
59338;SDS011;45117;50.960;5.500;2023-05-14T05:38:05;15.48;;;11.93;;
59338;SDS011;45117;50.960;5.500;2023-05-14T05:40:33;16.65;;;13.38;;
59338;SDS011;45117;50.960;5.500;2023-05-14T05:43:00;20.77;;;13.70;;
59338;SDS011;45117;50.960;5.500;2023-05-14T05:45:26;17.98;;;13.68;;
59338;SDS011;45117;50.960;5.500;2023-05-14T05:47:53;20.25;;;13.18;;
59338;SDS011;45117;50.960;5.500;2023-05-14T05:50:19;20.95;;;14.13;;
59338;SDS011;45117;50.960;5.500;2023-05-14T05:52:46;16.88;;;13.25;;
59338;SDS011;45117;50.960;5.500;2023-05-14T05:55:13;17.65;;;13.15;;
59338;SDS011;45117;50.960;5.500;2023-05-14T05:57:41;20.85;;;14.68;;
59338;SDS011;45117;50.960;5.500;2023-05-14T06:00:08;17.90;;;13.98;;
59338;SDS011;45117;50.960;5.500;2023-05-14T06:02:37;20.52;;;14.95;;
59338;SDS011;45117;50.960;5.500;2023-05-14T06:05:04;18.90;;;14.98;;
59338;SDS011;45117;50.960;5.500;2023-05-14T06:07:32;18.92;;;14.48;;
59338;SDS011;45117;50.960;5.500;2023-05-14T06:09:59;18.27;;;15.10;;
59338;SDS011;45117;50.960;5.500;2023-05-14T06:12:26;16.77;;;13.10;;
59338;SDS011;45117;50.960;5.500;2023-05-14T06:14:54;19.13;;;15.65;;
59338;SDS011;45117;50.960;5.500;2023-05-14T06:17:21;18.80;;;14.95;;
59338;SDS011;45117;50.960;5.500;2023-05-14T06:19:48;20.10;;;15.05;;
59338;SDS011;45117;50.960;5.500;2023-05-14T06:22:14;19.45;;;15.15;;
59338;SDS011;45117;50.960;5.500;2023-05-14T06:24:41;20.70;;;14.77;;
59338;SDS011;45117;50.960;5.500;2023-05-14T06:27:08;17.55;;;12.45;;
59338;SDS011;45117;50.960;5.500;2023-05-14T06:29:35;23.05;;;16.23;;
59338;SDS011;45117;50.960;5.500;2023-05-14T06:32:03;21.98;;;16.08;;
59338;SDS011;45117;50.960;5.500;2023-05-14T06:34:30;19.55;;;15.80;;
59338;SDS011;45117;50.960;5.500;2023-05-14T06:36:56;18.88;;;15.52;;
59338;SDS011;45117;50.960;5.500;2023-05-14T06:39:23;18.33;;;15.43;;
59338;SDS011;45117;50.960;5.500;2023-05-14T06:41:49;20.10;;;15.55;;
59338;SDS011;45117;50.960;5.500;2023-05-14T06:44:17;20.77;;;15.88;;
59338;SDS011;45117;50.960;5.500;2023-05-14T06:46:44;19.55;;;16.00;;
59338;SDS011;45117;50.960;5.500;2023-05-14T06:49:12;21.73;;;16.88;;
59338;SDS011;45117;50.960;5.500;2023-05-14T06:51:38;20.45;;;15.98;;
59338;SDS011;45117;50.960;5.500;2023-05-14T06:54:08;18.42;;;15.43;;
59338;SDS011;45117;50.960;5.500;2023-05-14T06:56:34;20.02;;;15.80;;
59338;SDS011;45117;50.960;5.500;2023-05-14T06:59:01;24.48;;;17.08;;
59338;SDS011;45117;50.960;5.500;2023-05-14T07:01:28;20.73;;;15.93;;
59338;SDS011;45117;50.960;5.500;2023-05-14T07:03:54;22.15;;;16.05;;
59338;SDS011;45117;50.960;5.500;2023-05-14T07:06:22;20.88;;;16.52;;
59338;SDS011;45117;50.960;5.500;2023-05-14T07:08:49;20.90;;;16.17;;
59338;SDS011;45117;50.960;5.500;2023-05-14T07:11:15;19.58;;;16.30;;
59338;SDS011;45117;50.960;5.500;2023-05-14T07:13:41;21.42;;;14.75;;
59338;SDS011;45117;50.960;5.500;2023-05-14T07:16:08;19.88;;;15.98;;
59338;SDS011;45117;50.960;5.500;2023-05-14T07:18:35;21.00;;;15.88;;
59338;SDS011;45117;50.960;5.500;2023-05-14T07:21:01;16.95;;;14.32;;
59338;SDS011;45117;50.960;5.500;2023-05-14T07:23:31;21.70;;;16.73;;
59338;SDS011;45117;50.960;5.500;2023-05-14T07:26:00;21.40;;;15.93;;
59338;SDS011;45117;50.960;5.500;2023-05-14T07:28:26;24.88;;;15.80;;
59338;SDS011;45117;50.960;5.500;2023-05-14T07:30:53;20.75;;;15.75;;
59338;SDS011;45117;50.960;5.500;2023-05-14T07:33:20;20.48;;;16.55;;
59338;SDS011;45117;50.960;5.500;2023-05-14T07:35:47;20.75;;;14.48;;
59338;SDS011;45117;50.960;5.500;2023-05-14T07:38:13;20.88;;;15.80;;
59338;SDS011;45117;50.960;5.500;2023-05-14T07:40:41;19.67;;;15.77;;
59338;SDS011;45117;50.960;5.500;2023-05-14T07:43:08;21.40;;;15.38;;
59338;SDS011;45117;50.960;5.500;2023-05-14T07:45:35;20.02;;;15.80;;
59338;SDS011;45117;50.960;5.500;2023-05-14T07:48:02;22.73;;;16.02;;
59338;SDS011;45117;50.960;5.500;2023-05-14T07:50:29;18.67;;;14.30;;
59338;SDS011;45117;50.960;5.500;2023-05-14T07:52:56;20.00;;;15.40;;
59338;SDS011;45117;50.960;5.500;2023-05-14T07:55:22;19.55;;;14.80;;
59338;SDS011;45117;50.960;5.500;2023-05-14T07:57:50;20.25;;;15.63;;
59338;SDS011;45117;50.960;5.500;2023-05-14T08:00:17;20.65;;;16.60;;
59338;SDS011;45117;50.960;5.500;2023-05-14T08:02:44;20.70;;;15.40;;
59338;SDS011;45117;50.960;5.500;2023-05-14T08:05:10;21.58;;;15.65;;
59338;SDS011;45117;50.960;5.500;2023-05-14T08:07:36;19.15;;;15.57;;
59338;SDS011;45117;50.960;5.500;2023-05-14T08:10:03;21.13;;;15.32;;
59338;SDS011;45117;50.960;5.500;2023-05-14T08:12:31;16.73;;;14.52;;
59338;SDS011;45117;50.960;5.500;2023-05-14T08:14:59;21.17;;;15.02;;
59338;SDS011;45117;50.960;5.500;2023-05-14T08:17:26;20.02;;;15.05;;
59338;SDS011;45117;50.960;5.500;2023-05-14T08:19:52;20.92;;;15.93;;
59338;SDS011;45117;50.960;5.500;2023-05-14T08:22:19;16.48;;;14.48;;
59338;SDS011;45117;50.960;5.500;2023-05-14T08:24:45;18.50;;;15.05;;
59338;SDS011;45117;50.960;5.500;2023-05-14T08:27:12;20.52;;;14.65;;
59338;SDS011;45117;50.960;5.500;2023-05-14T08:29:38;19.58;;;15.52;;
59338;SDS011;45117;50.960;5.500;2023-05-14T08:32:07;18.55;;;15.18;;
59338;SDS011;45117;50.960;5.500;2023-05-14T08:34:33;20.45;;;15.30;;
59338;SDS011;45117;50.960;5.500;2023-05-14T08:37:00;18.48;;;14.43;;
59338;SDS011;45117;50.960;5.500;2023-05-14T08:39:27;19.42;;;14.55;;
59338;SDS011;45117;50.960;5.500;2023-05-14T08:41:54;17.90;;;13.82;;
59338;SDS011;45117;50.960;5.500;2023-05-14T08:44:24;18.45;;;13.95;;
59338;SDS011;45117;50.960;5.500;2023-05-14T08:46:57;17.27;;;14.40;;
59338;SDS011;45117;50.960;5.500;2023-05-14T08:49:28;17.67;;;13.90;;
59338;SDS011;45117;50.960;5.500;2023-05-14T08:52:01;17.55;;;13.30;;
59338;SDS011;45117;50.960;5.500;2023-05-14T08:54:28;17.77;;;15.10;;
59338;SDS011;45117;50.960;5.500;2023-05-14T08:56:56;17.00;;;13.35;;
59338;SDS011;45117;50.960;5.500;2023-05-14T08:59:23;17.55;;;13.80;;
59338;SDS011;45117;50.960;5.500;2023-05-14T09:01:51;15.93;;;12.63;;
59338;SDS011;45117;50.960;5.500;2023-05-14T09:04:19;17.38;;;12.98;;
59338;SDS011;45117;50.960;5.500;2023-05-14T09:06:49;17.98;;;14.15;;
59338;SDS011;45117;50.960;5.500;2023-05-14T09:09:16;16.48;;;12.55;;
59338;SDS011;45117;50.960;5.500;2023-05-14T09:11:46;16.13;;;13.63;;
59338;SDS011;45117;50.960;5.500;2023-05-14T09:14:13;15.07;;;12.15;;
59338;SDS011;45117;50.960;5.500;2023-05-14T09:16:40;17.30;;;13.35;;
59338;SDS011;45117;50.960;5.500;2023-05-14T09:19:10;15.25;;;12.88;;
59338;SDS011;45117;50.960;5.500;2023-05-14T09:21:38;16.83;;;13.00;;
59338;SDS011;45117;50.960;5.500;2023-05-14T09:24:06;16.80;;;11.13;;
59338;SDS011;45117;50.960;5.500;2023-05-14T09:26:33;14.35;;;10.90;;
59338;SDS011;45117;50.960;5.500;2023-05-14T09:29:00;14.57;;;12.77;;
59338;SDS011;45117;50.960;5.500;2023-05-14T09:31:28;13.65;;;11.60;;
59338;SDS011;45117;50.960;5.500;2023-05-14T09:33:55;16.20;;;13.27;;
59338;SDS011;45117;50.960;5.500;2023-05-14T09:36:23;16.63;;;12.13;;
59338;SDS011;45117;50.960;5.500;2023-05-14T09:38:51;18.63;;;13.13;;
59338;SDS011;45117;50.960;5.500;2023-05-14T09:41:18;14.50;;;12.15;;
59338;SDS011;45117;50.960;5.500;2023-05-14T09:43:47;16.98;;;12.38;;
59338;SDS011;45117;50.960;5.500;2023-05-14T09:46:13;15.35;;;12.20;;
59338;SDS011;45117;50.960;5.500;2023-05-14T09:48:40;18.00;;;12.65;;
59338;SDS011;45117;50.960;5.500;2023-05-14T09:51:08;14.88;;;12.20;;
59338;SDS011;45117;50.960;5.500;2023-05-14T09:53:35;16.17;;;11.27;;
59338;SDS011;45117;50.960;5.500;2023-05-14T09:56:02;15.95;;;10.88;;
59338;SDS011;45117;50.960;5.500;2023-05-14T09:58:30;14.13;;;11.57;;
59338;SDS011;45117;50.960;5.500;2023-05-14T10:00:57;17.30;;;10.82;;
59338;SDS011;45117;50.960;5.500;2023-05-14T10:03:24;16.55;;;11.00;;
59338;SDS011;45117;50.960;5.500;2023-05-14T10:05:51;14.15;;;10.90;;
59338;SDS011;45117;50.960;5.500;2023-05-14T10:08:23;14.20;;;11.18;;
59338;SDS011;45117;50.960;5.500;2023-05-14T10:10:53;13.57;;;11.35;;
59338;SDS011;45117;50.960;5.500;2023-05-14T10:13:21;14.45;;;10.90;;
59338;SDS011;45117;50.960;5.500;2023-05-14T10:15:52;15.45;;;11.05;;
59338;SDS011;45117;50.960;5.500;2023-05-14T10:18:22;14.50;;;10.82;;
59338;SDS011;45117;50.960;5.500;2023-05-14T10:20:52;13.50;;;10.60;;
59338;SDS011;45117;50.960;5.500;2023-05-14T10:23:25;13.30;;;10.43;;
59338;SDS011;45117;50.960;5.500;2023-05-14T10:25:52;14.32;;;10.23;;
59338;SDS011;45117;50.960;5.500;2023-05-14T10:28:18;14.93;;;10.57;;
59338;SDS011;45117;50.960;5.500;2023-05-14T10:30:45;12.73;;;9.63;;
59338;SDS011;45117;50.960;5.500;2023-05-14T10:33:14;14.48;;;10.13;;
59338;SDS011;45117;50.960;5.500;2023-05-14T10:35:55;13.27;;;9.35;;
59338;SDS011;45117;50.960;5.500;2023-05-14T10:38:25;15.77;;;9.18;;
59338;SDS011;45117;50.960;5.500;2023-05-14T10:40:56;10.68;;;6.97;;
59338;SDS011;45117;50.960;5.500;2023-05-14T10:43:25;11.90;;;8.57;;
59338;SDS011;45117;50.960;5.500;2023-05-14T10:45:53;14.07;;;9.20;;
59338;SDS011;45117;50.960;5.500;2023-05-14T10:48:21;11.77;;;9.35;;
59338;SDS011;45117;50.960;5.500;2023-05-14T10:50:49;12.95;;;8.77;;
59338;SDS011;45117;50.960;5.500;2023-05-14T10:53:16;10.77;;;8.48;;
59338;SDS011;45117;50.960;5.500;2023-05-14T10:55:43;9.82;;;7.13;;
59338;SDS011;45117;50.960;5.500;2023-05-14T10:58:10;12.38;;;7.13;;
59338;SDS011;45117;50.960;5.500;2023-05-14T11:00:37;10.52;;;7.00;;
59338;SDS011;45117;50.960;5.500;2023-05-14T11:03:04;8.65;;;6.50;;
59338;SDS011;45117;50.960;5.500;2023-05-14T11:05:33;11.18;;;7.03;;
59338;SDS011;45117;50.960;5.500;2023-05-14T11:08:02;8.57;;;6.55;;
59338;SDS011;45117;50.960;5.500;2023-05-14T11:10:31;12.77;;;6.60;;
59338;SDS011;45117;50.960;5.500;2023-05-14T11:12:57;8.52;;;7.05;;
59338;SDS011;45117;50.960;5.500;2023-05-14T11:15:24;9.50;;;7.22;;
59338;SDS011;45117;50.960;5.500;2023-05-14T11:17:52;9.15;;;6.20;;
59338;SDS011;45117;50.960;5.500;2023-05-14T11:20:19;9.43;;;6.75;;
59338;SDS011;45117;50.960;5.500;2023-05-14T11:22:47;12.95;;;6.95;;
59338;SDS011;45117;50.960;5.500;2023-05-14T11:25:15;9.65;;;7.22;;
59338;SDS011;45117;50.960;5.500;2023-05-14T11:27:43;9.43;;;5.68;;
59338;SDS011;45117;50.960;5.500;2023-05-14T11:30:11;10.10;;;6.63;;
59338;SDS011;45117;50.960;5.500;2023-05-14T11:32:39;8.13;;;6.28;;
59338;SDS011;45117;50.960;5.500;2023-05-14T11:35:06;9.40;;;7.03;;
59338;SDS011;45117;50.960;5.500;2023-05-14T11:37:33;8.05;;;6.30;;
59338;SDS011;45117;50.960;5.500;2023-05-14T11:40:01;10.35;;;7.28;;
59338;SDS011;45117;50.960;5.500;2023-05-14T11:42:28;9.40;;;6.80;;
59338;SDS011;45117;50.960;5.500;2023-05-14T11:44:55;10.00;;;6.30;;
59338;SDS011;45117;50.960;5.500;2023-05-14T11:47:22;8.27;;;6.28;;
59338;SDS011;45117;50.960;5.500;2023-05-14T11:49:48;10.00;;;6.22;;
59338;SDS011;45117;50.960;5.500;2023-05-14T11:52:15;9.75;;;6.20;;
59338;SDS011;45117;50.960;5.500;2023-05-14T11:54:46;10.82;;;7.03;;
59338;SDS011;45117;50.960;5.500;2023-05-14T11:57:16;7.45;;;5.53;;
59338;SDS011;45117;50.960;5.500;2023-05-14T11:59:44;9.07;;;6.00;;
59338;SDS011;45117;50.960;5.500;2023-05-14T12:02:11;6.47;;;5.18;;
59338;SDS011;45117;50.960;5.500;2023-05-14T12:04:39;9.88;;;6.18;;
59338;SDS011;45117;50.960;5.500;2023-05-14T12:07:07;8.90;;;5.32;;
59338;SDS011;45117;50.960;5.500;2023-05-14T12:09:35;8.25;;;6.13;;
59338;SDS011;45117;50.960;5.500;2023-05-14T12:12:06;7.00;;;4.90;;
59338;SDS011;45117;50.960;5.500;2023-05-14T12:14:36;8.07;;;4.85;;
59338;SDS011;45117;50.960;5.500;2023-05-14T12:17:08;6.88;;;4.55;;
59338;SDS011;45117;50.960;5.500;2023-05-14T12:19:38;6.93;;;4.75;;
59338;SDS011;45117;50.960;5.500;2023-05-14T12:22:06;7.18;;;5.32;;
59338;SDS011;45117;50.960;5.500;2023-05-14T12:24:33;7.22;;;4.68;;
59338;SDS011;45117;50.960;5.500;2023-05-14T12:27:00;8.35;;;4.93;;
59338;SDS011;45117;50.960;5.500;2023-05-14T12:29:27;7.88;;;5.75;;
59338;SDS011;45117;50.960;5.500;2023-05-14T12:31:56;7.03;;;4.53;;
59338;SDS011;45117;50.960;5.500;2023-05-14T12:34:23;5.85;;;3.72;;
59338;SDS011;45117;50.960;5.500;2023-05-14T12:36:49;7.60;;;4.50;;
59338;SDS011;45117;50.960;5.500;2023-05-14T12:39:16;7.15;;;4.55;;
59338;SDS011;45117;50.960;5.500;2023-05-14T12:41:43;5.82;;;3.88;;
59338;SDS011;45117;50.960;5.500;2023-05-14T12:44:09;6.13;;;3.90;;
59338;SDS011;45117;50.960;5.500;2023-05-14T12:46:36;5.00;;;3.47;;
59338;SDS011;45117;50.960;5.500;2023-05-14T12:49:04;3.63;;;3.05;;
59338;SDS011;45117;50.960;5.500;2023-05-14T12:51:30;5.78;;;3.17;;
59338;SDS011;45117;50.960;5.500;2023-05-14T12:53:57;8.05;;;2.85;;
59338;SDS011;45117;50.960;5.500;2023-05-14T12:56:23;6.47;;;3.28;;
59338;SDS011;45117;50.960;5.500;2023-05-14T12:58:53;4.72;;;3.17;;
59338;SDS011;45117;50.960;5.500;2023-05-14T13:01:20;3.67;;;2.97;;
59338;SDS011;45117;50.960;5.500;2023-05-14T13:03:47;9.40;;;3.90;;
59338;SDS011;45117;50.960;5.500;2023-05-14T13:06:14;7.40;;;4.07;;
59338;SDS011;45117;50.960;5.500;2023-05-14T13:08:42;6.82;;;3.70;;
59338;SDS011;45117;50.960;5.500;2023-05-14T13:11:08;6.60;;;3.25;;
59338;SDS011;45117;50.960;5.500;2023-05-14T13:13:35;4.03;;;2.80;;
59338;SDS011;45117;50.960;5.500;2023-05-14T13:16:01;8.35;;;3.83;;
59338;SDS011;45117;50.960;5.500;2023-05-14T13:18:28;7.10;;;3.80;;
59338;SDS011;45117;50.960;5.500;2023-05-14T13:20:55;5.45;;;3.50;;
59338;SDS011;45117;50.960;5.500;2023-05-14T13:23:22;6.75;;;3.70;;
59338;SDS011;45117;50.960;5.500;2023-05-14T13:25:49;5.28;;;3.70;;
59338;SDS011;45117;50.960;5.500;2023-05-14T13:28:16;5.20;;;3.72;;
59338;SDS011;45117;50.960;5.500;2023-05-14T13:30:43;6.05;;;4.00;;
59338;SDS011;45117;50.960;5.500;2023-05-14T13:33:29;6.70;;;3.42;;
59338;SDS011;45117;50.960;5.500;2023-05-14T13:35:55;4.95;;;3.63;;
59338;SDS011;45117;50.960;5.500;2023-05-14T13:38:23;6.68;;;3.78;;
59338;SDS011;45117;50.960;5.500;2023-05-14T13:40:50;4.07;;;3.40;;
59338;SDS011;45117;50.960;5.500;2023-05-14T13:43:16;5.32;;;3.30;;
59338;SDS011;45117;50.960;5.500;2023-05-14T13:45:43;4.35;;;2.70;;
59338;SDS011;45117;50.960;5.500;2023-05-14T13:48:09;3.90;;;2.72;;
59338;SDS011;45117;50.960;5.500;2023-05-14T13:50:36;4.53;;;2.80;;
59338;SDS011;45117;50.960;5.500;2023-05-14T13:53:02;6.10;;;3.28;;
59338;SDS011;45117;50.960;5.500;2023-05-14T13:55:30;7.53;;;3.40;;
59338;SDS011;45117;50.960;5.500;2023-05-14T13:57:57;5.75;;;3.50;;
59338;SDS011;45117;50.960;5.500;2023-05-14T14:00:24;4.93;;;3.35;;
59338;SDS011;45117;50.960;5.500;2023-05-14T14:02:51;6.05;;;3.30;;
59338;SDS011;45117;50.960;5.500;2023-05-14T14:05:18;5.72;;;3.25;;
59338;SDS011;45117;50.960;5.500;2023-05-14T14:07:44;5.97;;;3.22;;
59338;SDS011;45117;50.960;5.500;2023-05-14T14:10:11;3.70;;;3.10;;
59338;SDS011;45117;50.960;5.500;2023-05-14T14:12:39;5.40;;;3.35;;
59338;SDS011;45117;50.960;5.500;2023-05-14T14:15:06;4.88;;;3.30;;
59338;SDS011;45117;50.960;5.500;2023-05-14T14:17:33;4.78;;;2.97;;
59338;SDS011;45117;50.960;5.500;2023-05-14T14:20:00;3.40;;;2.80;;
59338;SDS011;45117;50.960;5.500;2023-05-14T14:22:29;5.13;;;3.30;;
59338;SDS011;45117;50.960;5.500;2023-05-14T14:24:56;6.43;;;3.30;;
59338;SDS011;45117;50.960;5.500;2023-05-14T14:27:23;5.00;;;3.22;;
59338;SDS011;45117;50.960;5.500;2023-05-14T14:29:51;4.63;;;3.58;;